Lyme, New Hampshire
Current Conditions -  °F | °C
As of 4:53 AM on Sunday 25 Jan 2015 (Local Time) from KLEB Reporting Station
Overcast Overcast  
Wind Chill: 28°   Ceiling: 3900
Heat Index: 33°   Visibility: 10mi
Dew Point: 24°   Wind: 6mph
Humidity: 70%   Direction: 220°SW
Pressure: 29.35"   Gusts: NA
Location:  43.81°N, 72.16°W
Report Text: KLEB 250953Z AUTO 22005KT 10SM SCT030 BKN039 OVC070 01/M04 A2935 RMK AO2 SLP947 T00061044
Loading
Personal Weather Stations






























Interactive Weather Map New forecast layout! Learn more

10-Day Weather Forecast

Advertisements
Track Severe Weather on mobile